sensor_id;sensor_type;location;lat;lon;timestamp;P1;durP1;ratioP1;P2;durP2;ratioP2
75465;SDS011;64049;46.290;44.240;2023-04-03T00:01:14;2.45;;;1.00;;
75465;SDS011;64049;46.290;44.240;2023-04-03T00:03:41;3.40;;;1.40;;
75465;SDS011;64049;46.290;44.240;2023-04-03T00:06:07;5.40;;;1.75;;
75465;SDS011;64049;46.290;44.240;2023-04-03T00:08:35;3.80;;;1.25;;
75465;SDS011;64049;46.290;44.240;2023-04-03T00:11:02;8.00;;;2.22;;
75465;SDS011;64049;46.290;44.240;2023-04-03T00:13:29;3.58;;;1.20;;
75465;SDS011;64049;46.290;44.240;2023-04-03T00:15:55;6.43;;;1.75;;
75465;SDS011;64049;46.290;44.240;2023-04-03T00:18:21;5.82;;;2.03;;
75465;SDS011;64049;46.290;44.240;2023-04-03T00:20:47;6.00;;;1.42;;
75465;SDS011;64049;46.290;44.240;2023-04-03T00:23:14;5.82;;;1.90;;
75465;SDS011;64049;46.290;44.240;2023-04-03T00:25:40;5.72;;;1.90;;
75465;SDS011;64049;46.290;44.240;2023-04-03T00:28:06;7.57;;;2.33;;
75465;SDS011;64049;46.290;44.240;2023-04-03T00:30:32;5.03;;;1.92;;
75465;SDS011;64049;46.290;44.240;2023-04-03T00:32:58;4.78;;;1.77;;
75465;SDS011;64049;46.290;44.240;2023-04-03T00:35:26;7.47;;;2.53;;
75465;SDS011;64049;46.290;44.240;2023-04-03T00:37:53;2.88;;;1.08;;
75465;SDS011;64049;46.290;44.240;2023-04-03T00:40:21;3.33;;;1.33;;
75465;SDS011;64049;46.290;44.240;2023-04-03T00:42:51;6.85;;;1.67;;
75465;SDS011;64049;46.290;44.240;2023-04-03T00:45:32;4.25;;;1.73;;
75465;SDS011;64049;46.290;44.240;2023-04-03T00:47:58;4.07;;;1.10;;
75465;SDS011;64049;46.290;44.240;2023-04-03T00:50:28;5.13;;;1.90;;
75465;SDS011;64049;46.290;44.240;2023-04-03T00:52:55;5.70;;;2.42;;
75465;SDS011;64049;46.290;44.240;2023-04-03T00:55:23;4.10;;;1.20;;
75465;SDS011;64049;46.290;44.240;2023-04-03T00:57:49;4.78;;;1.75;;
75465;SDS011;64049;46.290;44.240;2023-04-03T01:00:17;3.25;;;1.48;;
75465;SDS011;64049;46.290;44.240;2023-04-03T01:02:49;4.38;;;1.50;;
75465;SDS011;64049;46.290;44.240;2023-04-03T01:05:16;4.10;;;1.70;;
75465;SDS011;64049;46.290;44.240;2023-04-03T01:07:44;8.32;;;2.45;;
75465;SDS011;64049;46.290;44.240;2023-04-03T01:10:12;4.90;;;1.70;;
75465;SDS011;64049;46.290;44.240;2023-04-03T01:12:42;6.40;;;2.10;;
75465;SDS011;64049;46.290;44.240;2023-04-03T01:15:12;5.55;;;2.38;;
75465;SDS011;64049;46.290;44.240;2023-04-03T01:17:51;8.18;;;1.88;;
75465;SDS011;64049;46.290;44.240;2023-04-03T01:23:09;7.85;;;2.15;;
75465;SDS011;64049;46.290;44.240;2023-04-03T01:25:47;3.60;;;1.00;;
75465;SDS011;64049;46.290;44.240;2023-04-03T01:28:18;6.20;;;2.25;;
75465;SDS011;64049;46.290;44.240;2023-04-03T01:33:54;5.35;;;1.75;;
75465;SDS011;64049;46.290;44.240;2023-04-03T01:36:23;5.82;;;2.08;;
75465;SDS011;64049;46.290;44.240;2023-04-03T01:38:51;5.63;;;2.13;;
75465;SDS011;64049;46.290;44.240;2023-04-03T01:41:18;4.30;;;1.90;;
75465;SDS011;64049;46.290;44.240;2023-04-03T01:43:46;7.03;;;2.65;;
75465;SDS011;64049;46.290;44.240;2023-04-03T01:46:13;6.45;;;2.05;;
75465;SDS011;64049;46.290;44.240;2023-04-03T01:48:40;4.88;;;1.80;;
75465;SDS011;64049;46.290;44.240;2023-04-03T01:51:06;9.57;;;2.35;;
75465;SDS011;64049;46.290;44.240;2023-04-03T01:53:32;7.75;;;2.85;;
75465;SDS011;64049;46.290;44.240;2023-04-03T01:55:59;7.57;;;2.95;;
75465;SDS011;64049;46.290;44.240;2023-04-03T01:58:25;5.63;;;1.85;;
75465;SDS011;64049;46.290;44.240;2023-04-03T02:00:52;7.95;;;2.25;;
75465;SDS011;64049;46.290;44.240;2023-04-03T02:03:18;8.63;;;2.30;;
75465;SDS011;64049;46.290;44.240;2023-04-03T02:05:45;6.47;;;2.78;;
75465;SDS011;64049;46.290;44.240;2023-04-03T02:08:10;8.82;;;2.70;;
75465;SDS011;64049;46.290;44.240;2023-04-03T02:10:36;10.20;;;2.88;;
75465;SDS011;64049;46.290;44.240;2023-04-03T02:13:02;7.60;;;2.80;;
75465;SDS011;64049;46.290;44.240;2023-04-03T02:15:29;7.82;;;2.40;;
75465;SDS011;64049;46.290;44.240;2023-04-03T02:17:55;7.82;;;3.03;;
75465;SDS011;64049;46.290;44.240;2023-04-03T02:20:21;4.13;;;1.80;;
75465;SDS011;64049;46.290;44.240;2023-04-03T02:22:47;6.97;;;2.55;;
75465;SDS011;64049;46.290;44.240;2023-04-03T02:25:13;7.82;;;2.55;;
75465;SDS011;64049;46.290;44.240;2023-04-03T02:27:39;9.57;;;2.83;;
75465;SDS011;64049;46.290;44.240;2023-04-03T02:30:06;7.75;;;2.63;;
75465;SDS011;64049;46.290;44.240;2023-04-03T02:32:35;7.57;;;2.70;;
75465;SDS011;64049;46.290;44.240;2023-04-03T02:35:02;8.90;;;2.95;;
75465;SDS011;64049;46.290;44.240;2023-04-03T02:37:28;15.40;;;3.65;;
75465;SDS011;64049;46.290;44.240;2023-04-03T02:39:55;7.30;;;2.90;;
75465;SDS011;64049;46.290;44.240;2023-04-03T02:42:21;6.65;;;2.10;;
75465;SDS011;64049;46.290;44.240;2023-04-03T02:44:47;8.90;;;3.15;;
75465;SDS011;64049;46.290;44.240;2023-04-03T02:47:13;7.10;;;2.47;;
75465;SDS011;64049;46.290;44.240;2023-04-03T02:49:39;7.07;;;2.33;;
75465;SDS011;64049;46.290;44.240;2023-04-03T02:52:06;13.20;;;3.08;;
75465;SDS011;64049;46.290;44.240;2023-04-03T02:54:32;9.80;;;3.10;;
75465;SDS011;64049;46.290;44.240;2023-04-03T02:57:02;6.90;;;2.85;;
75465;SDS011;64049;46.290;44.240;2023-04-03T02:59:27;6.53;;;2.35;;
75465;SDS011;64049;46.290;44.240;2023-04-03T03:01:53;6.57;;;2.85;;
75465;SDS011;64049;46.290;44.240;2023-04-03T03:04:21;7.63;;;2.88;;
75465;SDS011;64049;46.290;44.240;2023-04-03T03:06:46;12.07;;;3.25;;
75465;SDS011;64049;46.290;44.240;2023-04-03T03:09:12;10.23;;;3.20;;
75465;SDS011;64049;46.290;44.240;2023-04-03T03:11:39;7.72;;;3.65;;
75465;SDS011;64049;46.290;44.240;2023-04-03T03:14:05;10.23;;;2.70;;
75465;SDS011;64049;46.290;44.240;2023-04-03T03:16:32;9.40;;;3.22;;
75465;SDS011;64049;46.290;44.240;2023-04-03T03:18:58;7.75;;;3.05;;
75465;SDS011;64049;46.290;44.240;2023-04-03T03:21:24;7.50;;;2.55;;
75465;SDS011;64049;46.290;44.240;2023-04-03T03:23:50;8.15;;;2.40;;
75465;SDS011;64049;46.290;44.240;2023-04-03T03:26:16;9.30;;;3.15;;
75465;SDS011;64049;46.290;44.240;2023-04-03T03:28:41;9.80;;;3.10;;
75465;SDS011;64049;46.290;44.240;2023-04-03T03:31:08;7.30;;;2.72;;
75465;SDS011;64049;46.290;44.240;2023-04-03T03:33:36;9.98;;;3.40;;
75465;SDS011;64049;46.290;44.240;2023-04-03T03:36:02;8.63;;;3.40;;
75465;SDS011;64049;46.290;44.240;2023-04-03T03:38:28;10.95;;;3.17;;
75465;SDS011;64049;46.290;44.240;2023-04-03T03:40:54;10.75;;;2.88;;
75465;SDS011;64049;46.290;44.240;2023-04-03T03:43:22;7.93;;;3.05;;
75465;SDS011;64049;46.290;44.240;2023-04-03T03:45:50;12.07;;;3.35;;
75465;SDS011;64049;46.290;44.240;2023-04-03T03:48:18;9.00;;;2.70;;
75465;SDS011;64049;46.290;44.240;2023-04-03T03:50:45;11.73;;;3.30;;
75465;SDS011;64049;46.290;44.240;2023-04-03T03:53:11;14.20;;;2.72;;
75465;SDS011;64049;46.290;44.240;2023-04-03T03:55:37;9.38;;;3.33;;
75465;SDS011;64049;46.290;44.240;2023-04-03T03:58:03;9.65;;;3.13;;
75465;SDS011;64049;46.290;44.240;2023-04-03T04:00:30;12.32;;;3.03;;
75465;SDS011;64049;46.290;44.240;2023-04-03T04:02:57;10.57;;;3.65;;
75465;SDS011;64049;46.290;44.240;2023-04-03T04:05:24;8.05;;;2.72;;
75465;SDS011;64049;46.290;44.240;2023-04-03T04:07:52;8.90;;;2.75;;
75465;SDS011;64049;46.290;44.240;2023-04-03T04:10:18;9.50;;;3.38;;
75465;SDS011;64049;46.290;44.240;2023-04-03T04:12:45;12.02;;;2.53;;
75465;SDS011;64049;46.290;44.240;2023-04-03T04:15:11;8.73;;;3.35;;
75465;SDS011;64049;46.290;44.240;2023-04-03T04:17:38;8.07;;;3.20;;
75465;SDS011;64049;46.290;44.240;2023-04-03T04:20:08;11.75;;;3.08;;
75465;SDS011;64049;46.290;44.240;2023-04-03T04:22:35;11.50;;;4.25;;
75465;SDS011;64049;46.290;44.240;2023-04-03T04:25:01;11.98;;;3.80;;
75465;SDS011;64049;46.290;44.240;2023-04-03T04:27:27;8.20;;;3.05;;
75465;SDS011;64049;46.290;44.240;2023-04-03T04:29:53;7.32;;;3.22;;
75465;SDS011;64049;46.290;44.240;2023-04-03T04:34:51;11.88;;;4.78;;
75465;SDS011;64049;46.290;44.240;2023-04-03T04:37:17;16.88;;;5.03;;
75465;SDS011;64049;46.290;44.240;2023-04-03T04:39:43;13.98;;;5.40;;
75465;SDS011;64049;46.290;44.240;2023-04-03T04:42:09;12.85;;;4.75;;
75465;SDS011;64049;46.290;44.240;2023-04-03T04:44:39;12.77;;;3.47;;
75465;SDS011;64049;46.290;44.240;2023-04-03T04:47:06;12.77;;;4.70;;
75465;SDS011;64049;46.290;44.240;2023-04-03T04:49:32;9.55;;;2.85;;
75465;SDS011;64049;46.290;44.240;2023-04-03T04:51:58;19.10;;;4.93;;
75465;SDS011;64049;46.290;44.240;2023-04-03T04:54:28;12.18;;;2.58;;
75465;SDS011;64049;46.290;44.240;2023-04-03T04:56:55;9.60;;;3.03;;
75465;SDS011;64049;46.290;44.240;2023-04-03T04:59:21;34.75;;;7.35;;
75465;SDS011;64049;46.290;44.240;2023-04-03T05:01:49;11.00;;;3.70;;
75465;SDS011;64049;46.290;44.240;2023-04-03T05:04:16;8.38;;;2.63;;
75465;SDS011;64049;46.290;44.240;2023-04-03T05:06:45;8.07;;;2.33;;
75465;SDS011;64049;46.290;44.240;2023-04-03T05:09:16;13.82;;;5.03;;
75465;SDS011;64049;46.290;44.240;2023-04-03T05:14:13;6.65;;;2.10;;
75465;SDS011;64049;46.290;44.240;2023-04-03T05:16:40;8.35;;;1.95;;
75465;SDS011;64049;46.290;44.240;2023-04-03T05:19:06;5.63;;;2.20;;
75465;SDS011;64049;46.290;44.240;2023-04-03T05:21:32;4.60;;;1.20;;
75465;SDS011;64049;46.290;44.240;2023-04-03T05:24:02;5.55;;;1.50;;
75465;SDS011;64049;46.290;44.240;2023-04-03T05:26:31;5.35;;;1.90;;
75465;SDS011;64049;46.290;44.240;2023-04-03T05:28:58;8.07;;;1.58;;
75465;SDS011;64049;46.290;44.240;2023-04-03T05:31:24;4.68;;;1.75;;
75465;SDS011;64049;46.290;44.240;2023-04-03T05:33:51;9.80;;;2.65;;
75465;SDS011;64049;46.290;44.240;2023-04-03T05:36:17;4.70;;;1.42;;
75465;SDS011;64049;46.290;44.240;2023-04-03T05:38:47;4.45;;;1.55;;
75465;SDS011;64049;46.290;44.240;2023-04-03T05:41:14;10.10;;;2.72;;
75465;SDS011;64049;46.290;44.240;2023-04-03T05:43:42;5.97;;;1.95;;
75465;SDS011;64049;46.290;44.240;2023-04-03T05:46:13;4.97;;;1.23;;
75465;SDS011;64049;46.290;44.240;2023-04-03T05:48:43;4.75;;;1.17;;
75465;SDS011;64049;46.290;44.240;2023-04-03T05:51:24;6.78;;;1.40;;
75465;SDS011;64049;46.290;44.240;2023-04-03T05:53:59;3.78;;;1.05;;
75465;SDS011;64049;46.290;44.240;2023-04-03T05:56:31;4.10;;;1.23;;
75465;SDS011;64049;46.290;44.240;2023-04-03T05:58:57;8.85;;;1.40;;
75465;SDS011;64049;46.290;44.240;2023-04-03T06:01:25;5.03;;;1.30;;
75465;SDS011;64049;46.290;44.240;2023-04-03T06:03:51;4.13;;;1.20;;
75465;SDS011;64049;46.290;44.240;2023-04-03T06:06:17;7.53;;;1.65;;
75465;SDS011;64049;46.290;44.240;2023-04-03T06:08:43;6.18;;;1.35;;
75465;SDS011;64049;46.290;44.240;2023-04-03T06:11:10;4.75;;;1.05;;
75465;SDS011;64049;46.290;44.240;2023-04-03T06:13:37;2.15;;;0.65;;
75465;SDS011;64049;46.290;44.240;2023-04-03T06:16:04;3.58;;;0.90;;
75465;SDS011;64049;46.290;44.240;2023-04-03T06:18:30;7.10;;;0.70;;
75465;SDS011;64049;46.290;44.240;2023-04-03T06:20:57;5.97;;;1.08;;
75465;SDS011;64049;46.290;44.240;2023-04-03T06:23:24;9.43;;;1.80;;
75465;SDS011;64049;46.290;44.240;2023-04-03T06:25:50;6.78;;;1.50;;
75465;SDS011;64049;46.290;44.240;2023-04-03T06:28:15;3.33;;;1.00;;
75465;SDS011;64049;46.290;44.240;2023-04-03T06:30:41;5.05;;;0.93;;
75465;SDS011;64049;46.290;44.240;2023-04-03T06:33:07;6.22;;;0.95;;
75465;SDS011;64049;46.290;44.240;2023-04-03T06:35:33;4.78;;;1.73;;
75465;SDS011;64049;46.290;44.240;2023-04-03T06:38:00;6.07;;;1.45;;
75465;SDS011;64049;46.290;44.240;2023-04-03T06:40:26;2.05;;;0.55;;
75465;SDS011;64049;46.290;44.240;2023-04-03T06:42:52;7.72;;;1.27;;
75465;SDS011;64049;46.290;44.240;2023-04-03T06:45:19;3.15;;;0.82;;
75465;SDS011;64049;46.290;44.240;2023-04-03T06:47:45;4.53;;;0.90;;
75465;SDS011;64049;46.290;44.240;2023-04-03T06:50:11;5.93;;;1.15;;
75465;SDS011;64049;46.290;44.240;2023-04-03T06:52:39;5.55;;;1.10;;
75465;SDS011;64049;46.290;44.240;2023-04-03T06:55:05;3.97;;;1.10;;
75465;SDS011;64049;46.290;44.240;2023-04-03T06:57:31;6.80;;;1.13;;
75465;SDS011;64049;46.290;44.240;2023-04-03T06:59:57;7.60;;;1.23;;
75465;SDS011;64049;46.290;44.240;2023-04-03T07:02:23;18.88;;;4.05;;
75465;SDS011;64049;46.290;44.240;2023-04-03T07:04:49;5.78;;;1.35;;
75465;SDS011;64049;46.290;44.240;2023-04-03T07:07:15;4.53;;;1.00;;
75465;SDS011;64049;46.290;44.240;2023-04-03T07:09:42;3.35;;;0.90;;
75465;SDS011;64049;46.290;44.240;2023-04-03T07:12:08;3.25;;;0.80;;
75465;SDS011;64049;46.290;44.240;2023-04-03T07:14:34;7.10;;;1.10;;
75465;SDS011;64049;46.290;44.240;2023-04-03T07:17:00;4.95;;;1.65;;
75465;SDS011;64049;46.290;44.240;2023-04-03T07:19:26;3.75;;;0.98;;
75465;SDS011;64049;46.290;44.240;2023-04-03T07:21:54;4.68;;;1.10;;
75465;SDS011;64049;46.290;44.240;2023-04-03T07:24:20;7.13;;;1.50;;
75465;SDS011;64049;46.290;44.240;2023-04-03T07:26:50;9.20;;;1.23;;
75465;SDS011;64049;46.290;44.240;2023-04-03T07:29:16;5.72;;;1.20;;
75465;SDS011;64049;46.290;44.240;2023-04-03T07:31:43;7.60;;;1.50;;
75465;SDS011;64049;46.290;44.240;2023-04-03T07:34:10;4.97;;;1.00;;
75465;SDS011;64049;46.290;44.240;2023-04-03T07:36:36;4.03;;;0.88;;
75465;SDS011;64049;46.290;44.240;2023-04-03T07:39:03;5.63;;;1.40;;
75465;SDS011;64049;46.290;44.240;2023-04-03T07:41:29;5.63;;;1.30;;
75465;SDS011;64049;46.290;44.240;2023-04-03T07:43:55;6.45;;;1.00;;
75465;SDS011;64049;46.290;44.240;2023-04-03T07:46:22;4.60;;;0.88;;
75465;SDS011;64049;46.290;44.240;2023-04-03T07:48:48;6.03;;;0.98;;
75465;SDS011;64049;46.290;44.240;2023-04-03T07:51:14;2.67;;;0.80;;
75465;SDS011;64049;46.290;44.240;2023-04-03T07:53:40;4.03;;;1.10;;
75465;SDS011;64049;46.290;44.240;2023-04-03T07:56:06;4.55;;;1.08;;
75465;SDS011;64049;46.290;44.240;2023-04-03T07:58:33;3.85;;;0.88;;
75465;SDS011;64049;46.290;44.240;2023-04-03T08:01:00;5.88;;;1.20;;
75465;SDS011;64049;46.290;44.240;2023-04-03T08:03:26;8.38;;;1.55;;
75465;SDS011;64049;46.290;44.240;2023-04-03T08:05:51;5.88;;;0.80;;
75465;SDS011;64049;46.290;44.240;2023-04-03T08:08:19;5.18;;;1.02;;
75465;SDS011;64049;46.290;44.240;2023-04-03T08:10:51;6.60;;;1.40;;
75465;SDS011;64049;46.290;44.240;2023-04-03T08:13:18;6.47;;;1.13;;
75465;SDS011;64049;46.290;44.240;2023-04-03T08:15:45;6.57;;;1.00;;
75465;SDS011;64049;46.290;44.240;2023-04-03T08:18:12;4.35;;;1.00;;
75465;SDS011;64049;46.290;44.240;2023-04-03T08:20:38;4.82;;;1.10;;
75465;SDS011;64049;46.290;44.240;2023-04-03T08:23:06;3.13;;;1.10;;
75465;SDS011;64049;46.290;44.240;2023-04-03T08:25:33;4.07;;;0.90;;
75465;SDS011;64049;46.290;44.240;2023-04-03T08:30:27;4.03;;;1.02;;
75465;SDS011;64049;46.290;44.240;2023-04-03T08:32:53;5.88;;;1.23;;
75465;SDS011;64049;46.290;44.240;2023-04-03T08:35:18;3.88;;;1.00;;
75465;SDS011;64049;46.290;44.240;2023-04-03T08:37:45;3.28;;;0.95;;
75465;SDS011;64049;46.290;44.240;2023-04-03T08:40:15;5.20;;;0.80;;
75465;SDS011;64049;46.290;44.240;2023-04-03T08:42:48;9.63;;;1.20;;
75465;SDS011;64049;46.290;44.240;2023-04-03T08:45:16;8.75;;;1.10;;
75465;SDS011;64049;46.290;44.240;2023-04-03T08:47:47;6.43;;;0.90;;
75465;SDS011;64049;46.290;44.240;2023-04-03T08:50:38;6.90;;;1.00;;
75465;SDS011;64049;46.290;44.240;2023-04-03T08:53:14;6.57;;;0.70;;
75465;SDS011;64049;46.290;44.240;2023-04-03T08:55:48;4.05;;;1.02;;
75465;SDS011;64049;46.290;44.240;2023-04-03T08:58:17;2.55;;;0.70;;
75465;SDS011;64049;46.290;44.240;2023-04-03T09:03:32;5.85;;;0.95;;
75465;SDS011;64049;46.290;44.240;2023-04-03T09:14:31;4.43;;;0.98;;
75465;SDS011;64049;46.290;44.240;2023-04-03T09:17:04;3.17;;;0.88;;
75465;SDS011;64049;46.290;44.240;2023-04-03T09:19:52;2.25;;;0.73;;
75465;SDS011;64049;46.290;44.240;2023-04-03T09:22:28;4.57;;;1.13;;
75465;SDS011;64049;46.290;44.240;2023-04-03T09:24:58;8.05;;;1.95;;
75465;SDS011;64049;46.290;44.240;2023-04-03T09:27:31;5.95;;;1.20;;
75465;SDS011;64049;46.290;44.240;2023-04-03T09:29:57;5.57;;;1.25;;
75465;SDS011;64049;46.290;44.240;2023-04-03T09:32:27;6.47;;;0.90;;
75465;SDS011;64049;46.290;44.240;2023-04-03T09:37:43;4.75;;;1.00;;
75465;SDS011;64049;46.290;44.240;2023-04-03T09:42:53;8.57;;;1.88;;
75465;SDS011;64049;46.290;44.240;2023-04-03T09:45:32;3.92;;;0.90;;
75465;SDS011;64049;46.290;44.240;2023-04-03T09:48:14;5.68;;;1.20;;
75465;SDS011;64049;46.290;44.240;2023-04-03T09:53:28;3.75;;;0.80;;
75465;SDS011;64049;46.290;44.240;2023-04-03T09:55:56;5.63;;;0.93;;
75465;SDS011;64049;46.290;44.240;2023-04-03T09:58:24;6.13;;;1.08;;
75465;SDS011;64049;46.290;44.240;2023-04-03T10:00:56;3.35;;;0.80;;
75465;SDS011;64049;46.290;44.240;2023-04-03T10:03:31;6.40;;;0.75;;
75465;SDS011;64049;46.290;44.240;2023-04-03T10:06:04;5.15;;;1.05;;
75465;SDS011;64049;46.290;44.240;2023-04-03T10:08:59;5.65;;;0.95;;
75465;SDS011;64049;46.290;44.240;2023-04-03T10:11:30;6.40;;;1.02;;
75465;SDS011;64049;46.290;44.240;2023-04-03T10:13:57;3.72;;;0.70;;
75465;SDS011;64049;46.290;44.240;2023-04-03T10:19:36;3.35;;;0.90;;
75465;SDS011;64049;46.290;44.240;2023-04-03T10:22:47;3.17;;;0.70;;
75465;SDS011;64049;46.290;44.240;2023-04-03T10:28:34;1.52;;;0.60;;
75465;SDS011;64049;46.290;44.240;2023-04-03T10:31:29;1.73;;;0.55;;
75465;SDS011;64049;46.290;44.240;2023-04-03T10:34:18;2.88;;;0.75;;
75465;SDS011;64049;46.290;44.240;2023-04-03T10:42:26;3.38;;;0.70;;
75465;SDS011;64049;46.290;44.240;2023-04-03T10:47:50;5.45;;;1.00;;
75465;SDS011;64049;46.290;44.240;2023-04-03T10:50:38;7.53;;;0.85;;
75465;SDS011;64049;46.290;44.240;2023-04-03T10:58:53;7.13;;;0.93;;
75465;SDS011;64049;46.290;44.240;2023-04-03T11:01:36;4.72;;;1.25;;
75465;SDS011;64049;46.290;44.240;2023-04-03T11:04:06;3.53;;;0.70;;
75465;SDS011;64049;46.290;44.240;2023-04-03T11:06:37;4.30;;;0.90;;
75465;SDS011;64049;46.290;44.240;2023-04-03T11:11:44;4.05;;;0.80;;
75465;SDS011;64049;46.290;44.240;2023-04-03T11:14:14;4.95;;;0.75;;
75465;SDS011;64049;46.290;44.240;2023-04-03T11:17:01;4.68;;;0.70;;
75465;SDS011;64049;46.290;44.240;2023-04-03T11:19:40;3.88;;;1.40;;
75465;SDS011;64049;46.290;44.240;2023-04-03T11:22:42;3.17;;;0.73;;
75465;SDS011;64049;46.290;44.240;2023-04-03T11:30:16;8.43;;;0.98;;
75465;SDS011;64049;46.290;44.240;2023-04-03T11:32:54;3.33;;;0.80;;
75465;SDS011;64049;46.290;44.240;2023-04-03T11:35:30;4.93;;;1.05;;
75465;SDS011;64049;46.290;44.240;2023-04-03T11:37:58;3.38;;;1.10;;
75465;SDS011;64049;46.290;44.240;2023-04-03T11:46:05;3.83;;;0.90;;
75465;SDS011;64049;46.290;44.240;2023-04-03T11:53:47;3.33;;;0.93;;
75465;SDS011;64049;46.290;44.240;2023-04-03T11:56:46;2.85;;;0.80;;
75465;SDS011;64049;46.290;44.240;2023-04-03T12:04:14;4.72;;;0.90;;
75465;SDS011;64049;46.290;44.240;2023-04-03T12:06:48;5.78;;;1.38;;
75465;SDS011;64049;46.290;44.240;2023-04-03T12:09:34;4.60;;;0.98;;
75465;SDS011;64049;46.290;44.240;2023-04-03T12:12:29;3.25;;;1.10;;
75465;SDS011;64049;46.290;44.240;2023-04-03T12:14:55;22.27;;;2.30;;
75465;SDS011;64049;46.290;44.240;2023-04-03T12:17:43;4.05;;;1.10;;
75465;SDS011;64049;46.290;44.240;2023-04-03T12:26:04;4.75;;;1.00;;
75465;SDS011;64049;46.290;44.240;2023-04-03T12:28:43;6.00;;;1.10;;
75465;SDS011;64049;46.290;44.240;2023-04-03T12:31:09;3.42;;;0.98;;
75465;SDS011;64049;46.290;44.240;2023-04-03T12:34:00;2.50;;;0.80;;
75465;SDS011;64049;46.290;44.240;2023-04-03T12:39:33;4.07;;;1.08;;
75465;SDS011;64049;46.290;44.240;2023-04-03T12:45:15;5.10;;;1.00;;
75465;SDS011;64049;46.290;44.240;2023-04-03T12:47:45;21.80;;;1.65;;
75465;SDS011;64049;46.290;44.240;2023-04-03T12:50:30;3.17;;;0.73;;
75465;SDS011;64049;46.290;44.240;2023-04-03T12:53:04;9.20;;;1.10;;
75465;SDS011;64049;46.290;44.240;2023-04-03T12:55:32;4.95;;;1.00;;
75465;SDS011;64049;46.290;44.240;2023-04-03T12:58:43;7.18;;;0.88;;
75465;SDS011;64049;46.290;44.240;2023-04-03T13:03:28;5.78;;;1.00;;
75465;SDS011;64049;46.290;44.240;2023-04-03T13:05:56;3.33;;;0.80;;
75465;SDS011;64049;46.290;44.240;2023-04-03T13:08:25;3.75;;;1.00;;
75465;SDS011;64049;46.290;44.240;2023-04-03T13:13:36;2.65;;;0.90;;
75465;SDS011;64049;46.290;44.240;2023-04-03T13:16:10;3.80;;;1.15;;
75465;SDS011;64049;46.290;44.240;2023-04-03T13:18:39;6.53;;;1.55;;
75465;SDS011;64049;46.290;44.240;2023-04-03T13:21:15;5.05;;;1.08;;
75465;SDS011;64049;46.290;44.240;2023-04-03T13:23:45;3.00;;;1.17;;
75465;SDS011;64049;46.290;44.240;2023-04-03T13:26:15;3.70;;;1.13;;
75465;SDS011;64049;46.290;44.240;2023-04-03T13:28:44;7.00;;;1.50;;
75465;SDS011;64049;46.290;44.240;2023-04-03T13:33:41;2.65;;;1.00;;
75465;SDS011;64049;46.290;44.240;2023-04-03T13:36:22;4.93;;;1.00;;
75465;SDS011;64049;46.290;44.240;2023-04-03T13:41:33;8.77;;;1.30;;
75465;SDS011;64049;46.290;44.240;2023-04-03T13:46:49;5.43;;;1.30;;
75465;SDS011;64049;46.290;44.240;2023-04-03T13:49:37;3.08;;;0.90;;
75465;SDS011;64049;46.290;44.240;2023-04-03T13:54:57;4.80;;;1.20;;
75465;SDS011;64049;46.290;44.240;2023-04-03T13:57:26;5.00;;;1.33;;
75465;SDS011;64049;46.290;44.240;2023-04-03T13:59:53;8.73;;;1.92;;
75465;SDS011;64049;46.290;44.240;2023-04-03T14:02:40;6.55;;;2.00;;
75465;SDS011;64049;46.290;44.240;2023-04-03T14:07:33;7.60;;;1.52;;
75465;SDS011;64049;46.290;44.240;2023-04-03T14:09:59;6.90;;;1.65;;
75465;SDS011;64049;46.290;44.240;2023-04-03T14:15:19;10.73;;;1.70;;
75465;SDS011;64049;46.290;44.240;2023-04-03T14:17:49;6.65;;;1.50;;
75465;SDS011;64049;46.290;44.240;2023-04-03T14:20:17;7.22;;;1.30;;
75465;SDS011;64049;46.290;44.240;2023-04-03T14:22:45;9.70;;;2.58;;
75465;SDS011;64049;46.290;44.240;2023-04-03T14:25:12;3.97;;;1.92;;
75465;SDS011;64049;46.290;44.240;2023-04-03T14:27:39;8.02;;;2.95;;
75465;SDS011;64049;46.290;44.240;2023-04-03T14:30:09;7.15;;;2.58;;
75465;SDS011;64049;46.290;44.240;2023-04-03T14:32:41;5.35;;;1.55;;
75465;SDS011;64049;46.290;44.240;2023-04-03T14:35:07;5.05;;;1.88;;
75465;SDS011;64049;46.290;44.240;2023-04-03T14:37:33;5.20;;;2.22;;
75465;SDS011;64049;46.290;44.240;2023-04-03T14:40:01;5.63;;;1.60;;
75465;SDS011;64049;46.290;44.240;2023-04-03T14:42:30;5.15;;;2.03;;
75465;SDS011;64049;46.290;44.240;2023-04-03T14:44:59;5.30;;;1.90;;
75465;SDS011;64049;46.290;44.240;2023-04-03T14:47:27;5.35;;;1.83;;
75465;SDS011;64049;46.290;44.240;2023-04-03T14:49:55;4.30;;;1.92;;
75465;SDS011;64049;46.290;44.240;2023-04-03T14:52:25;4.13;;;1.77;;
75465;SDS011;64049;46.290;44.240;2023-04-03T14:55:00;4.25;;;1.88;;
75465;SDS011;64049;46.290;44.240;2023-04-03T14:57:28;6.57;;;1.92;;
75465;SDS011;64049;46.290;44.240;2023-04-03T14:59:55;6.88;;;2.35;;
75465;SDS011;64049;46.290;44.240;2023-04-03T15:04:54;6.88;;;2.47;;
75465;SDS011;64049;46.290;44.240;2023-04-03T15:07:20;7.68;;;2.78;;
75465;SDS011;64049;46.290;44.240;2023-04-03T15:09:48;5.18;;;1.40;;
75465;SDS011;64049;46.290;44.240;2023-04-03T15:12:14;4.63;;;1.52;;
75465;SDS011;64049;46.290;44.240;2023-04-03T15:14:40;4.93;;;1.80;;
75465;SDS011;64049;46.290;44.240;2023-04-03T15:17:06;8.52;;;1.80;;
75465;SDS011;64049;46.290;44.240;2023-04-03T15:19:36;3.47;;;1.40;;
75465;SDS011;64049;46.290;44.240;2023-04-03T15:22:04;6.40;;;2.10;;
75465;SDS011;64049;46.290;44.240;2023-04-03T15:24:30;6.47;;;2.30;;
75465;SDS011;64049;46.290;44.240;2023-04-03T15:26:56;3.80;;;1.33;;
75465;SDS011;64049;46.290;44.240;2023-04-03T15:29:22;5.00;;;1.35;;
75465;SDS011;64049;46.290;44.240;2023-04-03T15:31:48;3.55;;;1.25;;
75465;SDS011;64049;46.290;44.240;2023-04-03T15:34:15;5.25;;;1.15;;
75465;SDS011;64049;46.290;44.240;2023-04-03T15:36:41;7.65;;;1.40;;
75465;SDS011;64049;46.290;44.240;2023-04-03T15:39:07;4.50;;;1.50;;
75465;SDS011;64049;46.290;44.240;2023-04-03T15:41:33;2.17;;;0.88;;
75465;SDS011;64049;46.290;44.240;2023-04-03T15:43:58;3.42;;;1.05;;
75465;SDS011;64049;46.290;44.240;2023-04-03T15:46:25;5.95;;;1.77;;
75465;SDS011;64049;46.290;44.240;2023-04-03T15:48:50;4.10;;;1.33;;
75465;SDS011;64049;46.290;44.240;2023-04-03T15:51:16;10.15;;;2.20;;
75465;SDS011;64049;46.290;44.240;2023-04-03T15:53:42;3.33;;;1.30;;
75465;SDS011;64049;46.290;44.240;2023-04-03T15:56:09;4.10;;;1.70;;
75465;SDS011;64049;46.290;44.240;2023-04-03T15:58:35;3.10;;;1.50;;
75465;SDS011;64049;46.290;44.240;2023-04-03T16:01:01;3.20;;;1.38;;
75465;SDS011;64049;46.290;44.240;2023-04-03T16:03:27;3.63;;;1.00;;
75465;SDS011;64049;46.290;44.240;2023-04-03T16:05:53;4.13;;;1.80;;
75465;SDS011;64049;46.290;44.240;2023-04-03T16:08:20;4.18;;;1.30;;
75465;SDS011;64049;46.290;44.240;2023-04-03T16:10:52;4.40;;;1.20;;
75465;SDS011;64049;46.290;44.240;2023-04-03T16:13:18;3.42;;;1.42;;
75465;SDS011;64049;46.290;44.240;2023-04-03T16:15:43;1.95;;;0.77;;
75465;SDS011;64049;46.290;44.240;2023-04-03T16:18:09;3.75;;;1.40;;
75465;SDS011;64049;46.290;44.240;2023-04-03T16:20:35;4.18;;;1.35;;
75465;SDS011;64049;46.290;44.240;2023-04-03T16:23:01;3.42;;;1.20;;
75465;SDS011;64049;46.290;44.240;2023-04-03T16:25:27;2.00;;;0.65;;
75465;SDS011;64049;46.290;44.240;2023-04-03T16:27:54;6.03;;;1.58;;
75465;SDS011;64049;46.290;44.240;2023-04-03T16:30:20;5.03;;;1.65;;
75465;SDS011;64049;46.290;44.240;2023-04-03T16:32:45;4.30;;;1.50;;
75465;SDS011;64049;46.290;44.240;2023-04-03T16:35:11;4.30;;;1.13;;
75465;SDS011;64049;46.290;44.240;2023-04-03T16:37:38;4.68;;;1.52;;